createdAt,value
2023-01-09T00:04:35.652Z,6.35
2023-01-09T00:09:38.325Z,6.60
2023-01-09T00:14:41.039Z,6.59
2023-01-09T00:19:43.895Z,6.67
2023-01-09T00:24:46.597Z,6.39
2023-01-09T00:29:49.756Z,5.96
2023-01-09T00:34:53.673Z,5.98
2023-01-09T00:39:56.477Z,6.18
2023-01-09T00:45:03.260Z,6.31
2023-01-09T00:50:11.385Z,6.25
2023-01-09T00:55:15.430Z,6.09
2023-01-09T01:00:19.130Z,6.01
2023-01-09T01:05:40.490Z,6.03
2023-01-09T01:10:44.921Z,6.09
2023-01-09T01:15:47.729Z,6.32
2023-01-09T01:20:50.428Z,6.36
2023-01-09T01:25:53.187Z,6.60
2023-01-09T01:30:55.989Z,6.55
2023-01-09T01:36:05.063Z,7.23
2023-01-09T01:41:07.774Z,7.98
2023-01-09T01:46:10.512Z,8.31
2023-01-09T01:51:16.558Z,8.35
2023-01-09T01:56:35.584Z,8.40
2023-01-09T02:01:42.591Z,8.06
2023-01-09T02:06:48.537Z,8.15
2023-01-09T02:11:57.266Z,8.23
2023-01-09T02:17:28.007Z,8.66
2023-01-09T02:23:05.184Z,8.32
2023-01-09T02:28:40.180Z,8.19
2023-01-09T02:33:55.047Z,8.24
2023-01-09T02:39:08.515Z,8.19
2023-01-09T02:44:22.601Z,8.24
2023-01-09T02:49:25.706Z,8.34
2023-01-09T02:54:43.405Z,8.67
2023-01-09T03:00:13.696Z,8.45
2023-01-09T03:05:23.132Z,8.17
2023-01-09T03:10:37.996Z,8.18
2023-01-09T03:15:44.520Z,7.47
2023-01-09T03:20:48.589Z,7.17
2023-01-09T03:25:51.351Z,6.85
2023-01-09T03:30:54.152Z,6.76
2023-01-09T03:35:56.832Z,7.07
2023-01-09T03:40:59.659Z,7.13
2023-01-09T03:46:03.508Z,7.51
2023-01-09T03:51:06.422Z,7.43
2023-01-09T03:56:09.188Z,7.67
2023-01-09T04:01:12.959Z,7.77
2023-01-09T04:06:15.916Z,7.42
2023-01-09T04:11:18.719Z,7.22
2023-01-09T04:16:21.591Z,7.45
2023-01-09T04:21:24.423Z,7.15
2023-01-09T04:26:27.224Z,7.18
2023-01-09T04:31:30.021Z,7.09
2023-01-09T04:36:34.878Z,7.46
2023-01-09T04:41:49.876Z,7.53
2023-01-09T04:46:54.113Z,7.12
2023-01-09T04:51:57.293Z,7.34
2023-01-09T04:57:00.128Z,7.02
2023-01-09T05:02:03.530Z,7.14
2023-01-09T05:07:06.598Z,7.58
2023-01-09T05:12:09.784Z,7.92
2023-01-09T05:17:12.443Z,7.85
2023-01-09T05:22:15.262Z,8.11
2023-01-09T05:27:18.251Z,7.94
2023-01-09T05:32:21.055Z,7.87
2023-01-09T05:37:23.845Z,7.34
2023-01-09T05:42:26.657Z,6.96
2023-01-09T05:47:29.459Z,7.42
2023-01-09T05:52:32.375Z,7.67
2023-01-09T05:57:35.169Z,7.73
2023-01-09T06:02:38.040Z,8.05
2023-01-09T06:07:42.110Z,7.49
2023-01-09T06:12:51.841Z,7.53
2023-01-09T06:17:54.651Z,7.83
2023-01-09T06:22:57.574Z,7.66
2023-01-09T06:28:00.313Z,7.72
2023-01-09T06:33:03.276Z,7.75
2023-01-09T06:38:06.315Z,7.60
2023-01-09T06:43:09.184Z,7.79
2023-01-09T06:48:12.460Z,7.79
2023-01-09T06:53:15.408Z,7.76
2023-01-09T06:58:18.614Z,7.78
2023-01-09T07:03:22.805Z,8.02
2023-01-09T07:08:25.662Z,8.33
2023-01-09T07:13:28.387Z,8.32
2023-01-09T07:18:31.663Z,8.22
2023-01-09T07:23:35.181Z,8.46
2023-01-09T07:28:37.861Z,7.95
2023-01-09T07:33:41.061Z,8.11
2023-01-09T07:38:43.746Z,8.01
2023-01-09T07:43:46.449Z,7.88
2023-01-09T07:48:49.190Z,7.58
2023-01-09T07:53:51.991Z,7.73
2023-01-09T07:58:54.820Z,7.71
2023-01-09T08:03:57.699Z,7.87
2023-01-09T08:09:00.810Z,8.11
2023-01-09T08:14:04.022Z,8.11
2023-01-09T08:19:06.809Z,8.18
2023-01-09T08:24:10.137Z,8.14
2023-01-09T08:29:13.074Z,8.43
2023-01-09T08:34:15.835Z,8.63
2023-01-09T08:39:18.617Z,8.58
2023-01-09T08:44:40.630Z,8.68
2023-01-09T08:49:43.432Z,8.53
2023-01-09T08:54:46.194Z,8.43
2023-01-09T08:59:48.945Z,8.54
2023-01-09T09:04:56.154Z,8.19
2023-01-09T09:09:58.811Z,8.18
2023-01-09T09:15:20.339Z,8.16
2023-01-09T09:20:25.303Z,8.04
2023-01-09T09:25:28.974Z,8.37
2023-01-09T09:30:31.812Z,8.46
2023-01-09T09:35:34.884Z,8.59
2023-01-09T09:41:28.942Z,8.10
2023-01-09T09:46:50.984Z,7.92
2023-01-09T09:52:18.961Z,7.99
2023-01-09T09:57:29.632Z,7.77
2023-01-09T10:02:54.242Z,8.14
2023-01-09T10:08:14.929Z,8.05
2023-01-09T10:13:38.866Z,8.01
2023-01-09T10:18:54.515Z,7.66
2023-01-09T10:24:32.982Z,7.77
2023-01-09T10:29:55.990Z,7.86
2023-01-09T10:35:08.144Z,7.94
2023-01-09T10:40:29.155Z,7.93
2023-01-09T10:45:39.936Z,8.22
2023-01-09T10:50:46.004Z,8.16
2023-01-09T10:55:54.491Z,8.02
2023-01-09T11:01:00.440Z,7.66
2023-01-09T11:06:03.850Z,7.61
2023-01-09T11:11:06.760Z,7.68
2023-01-09T11:16:24.033Z,7.85
2023-01-09T11:21:32.598Z,7.95
2023-01-09T11:26:35.638Z,7.91
2023-01-09T11:31:40.055Z,8.02
2023-01-09T11:36:43.536Z,8.24
2023-01-09T11:41:48.317Z,8.33
2023-01-09T11:46:52.495Z,8.28
2023-01-09T11:52:21.049Z,8.41
2023-01-09T11:57:26.152Z,8.48
2023-01-09T12:02:53.225Z,8.33
2023-01-09T12:08:11.170Z,8.36
2023-01-09T12:13:26.015Z,8.26
2023-01-09T12:19:04.191Z,7.81
2023-01-09T12:24:49.493Z,7.97
2023-01-09T12:30:01.409Z,8.18
2023-01-09T12:35:30.205Z,8.22
2023-01-09T12:40:40.813Z,8.36
2023-01-09T12:45:59.407Z,8.42
2023-01-09T12:51:21.013Z,8.30
2023-01-09T12:56:29.651Z,8.63
2023-01-09T13:01:44.221Z,8.96
2023-01-09T13:06:59.713Z,9.61
2023-01-09T13:12:12.563Z,9.31
2023-01-09T13:17:33.232Z,9.21
2023-01-09T13:22:36.402Z,8.77
2023-01-09T13:27:41.456Z,8.76
2023-01-09T13:32:44.258Z,8.66
2023-01-09T13:37:52.675Z,8.51
2023-01-09T13:43:03.402Z,8.61
2023-01-09T13:48:09.864Z,8.68
2023-01-09T13:53:18.634Z,8.78
2023-01-09T13:58:22.929Z,8.59
2023-01-09T14:03:33.514Z,8.65
2023-01-09T14:08:36.679Z,8.76
2023-01-09T14:13:44.466Z,8.81
2023-01-09T14:18:53.661Z,8.83
2023-01-09T14:24:07.095Z,8.77
2023-01-09T14:29:28.380Z,8.68
2023-01-09T14:34:37.431Z,8.69
2023-01-09T14:39:45.336Z,8.66
2023-01-09T14:45:06.543Z,8.64
2023-01-09T14:50:45.459Z,8.57
2023-01-09T14:55:57.831Z,8.57
2023-01-09T15:01:03.391Z,8.59
2023-01-09T15:06:10.654Z,9.06
2023-01-09T15:11:14.187Z,9.25
2023-01-09T15:16:20.679Z,9.18
2023-01-09T15:21:31.047Z,9.00
2023-01-09T15:26:33.891Z,8.81
2023-01-09T15:31:39.027Z,8.86
2023-01-09T15:36:41.954Z,8.91
2023-01-09T15:42:05.987Z,9.11
2023-01-09T15:47:15.663Z,9.06
2023-01-09T15:52:19.405Z,8.89
2023-01-09T15:57:24.966Z,8.88
2023-01-09T16:02:46.275Z,9.06
2023-01-09T16:07:51.753Z,9.11
2023-01-09T16:12:54.952Z,8.95
2023-01-09T16:18:14.042Z,8.85
2023-01-09T16:23:30.872Z,8.95
2023-01-09T16:28:33.752Z,8.94
2023-01-09T16:33:45.799Z,8.98
2023-01-09T16:38:48.838Z,9.02
2023-01-09T16:43:52.244Z,8.98
2023-01-09T16:48:55.239Z,8.99
2023-01-09T16:53:57.956Z,9.15
2023-01-09T16:59:00.603Z,9.33
2023-01-09T17:04:10.898Z,9.39
2023-01-09T17:09:16.376Z,9.38
2023-01-09T17:14:19.141Z,9.45
2023-01-09T17:19:25.626Z,9.73
2023-01-09T17:24:46.965Z,10.01
2023-01-09T17:29:49.708Z,9.87
2023-01-09T17:34:52.409Z,10.15
2023-01-09T17:40:01.130Z,9.98
2023-01-09T17:45:04.707Z,10.17
2023-01-09T17:50:17.650Z,10.45
2023-01-09T17:55:20.379Z,10.60
2023-01-09T18:00:27.749Z,10.70
2023-01-09T18:05:30.923Z,10.62
2023-01-09T18:10:33.702Z,10.37
2023-01-09T18:15:37.147Z,10.23
2023-01-09T18:20:40.786Z,10.02
2023-01-09T18:25:44.205Z,9.91
2023-01-09T18:30:50.379Z,10.20
2023-01-09T18:35:53.124Z,10.52
2023-01-09T18:41:00.043Z,10.60
2023-01-09T18:46:09.641Z,10.66
2023-01-09T18:51:12.404Z,10.73
2023-01-09T18:56:15.722Z,10.91
2023-01-09T19:01:19.672Z,10.81
2023-01-09T19:06:23.050Z,10.88
2023-01-09T19:11:26.072Z,10.98
2023-01-09T19:16:28.980Z,11.09
2023-01-09T19:21:32.430Z,11.06
2023-01-09T19:26:35.198Z,10.85
2023-01-09T19:31:38.098Z,10.66
2023-01-09T19:36:40.911Z,10.66
2023-01-09T19:41:44.416Z,10.65
2023-01-09T19:46:47.215Z,10.80
2023-01-09T19:51:51.759Z,10.77
2023-01-09T19:56:54.564Z,10.86
2023-01-09T20:01:58.254Z,10.85
2023-01-09T20:07:01.248Z,10.81
2023-01-09T20:12:05.446Z,11.09
2023-01-09T20:17:08.160Z,11.20
2023-01-09T20:22:11.653Z,11.20
2023-01-09T20:27:14.444Z,11.24
2023-01-09T20:32:17.192Z,11.01
2023-01-09T20:37:19.948Z,10.99
2023-01-09T20:42:22.635Z,10.80
2023-01-09T20:47:26.361Z,10.69
2023-01-09T20:52:29.092Z,10.47
2023-01-09T20:57:32.179Z,10.47
2023-01-09T21:02:34.972Z,10.51
2023-01-09T21:07:37.795Z,10.54
2023-01-09T21:12:40.601Z,10.53
2023-01-09T21:17:43.928Z,10.69
2023-01-09T21:22:46.683Z,10.57
2023-01-09T21:27:51.151Z,10.63
2023-01-09T21:32:53.938Z,10.81
2023-01-09T21:37:58.098Z,10.83
2023-01-09T21:43:19.512Z,10.70
2023-01-09T21:48:24.553Z,10.84
2023-01-09T21:53:27.260Z,10.96
2023-01-09T21:58:29.958Z,10.96
2023-01-09T22:03:32.703Z,11.07
2023-01-09T22:08:35.771Z,11.15
2023-01-09T22:13:38.574Z,11.20
2023-01-09T22:18:41.513Z,11.18
2023-01-09T22:23:44.198Z,11.06
2023-01-09T22:28:48.921Z,11.13
2023-01-09T22:33:53.368Z,11.18
2023-01-09T22:38:57.905Z,11.17
2023-01-09T22:44:00.911Z,11.22
2023-01-09T22:49:04.352Z,11.13
2023-01-09T22:54:07.124Z,11.23
2023-01-09T22:59:09.922Z,11.02
2023-01-09T23:04:13.988Z,10.98
2023-01-09T23:09:16.866Z,10.81
2023-01-09T23:14:21.616Z,10.71
2023-01-09T23:19:24.364Z,10.54
2023-01-09T23:24:28.343Z,10.39
2023-01-09T23:29:31.137Z,10.37
2023-01-09T23:34:33.939Z,10.39
2023-01-09T23:39:36.850Z,10.39
2023-01-09T23:44:39.646Z,10.36
2023-01-09T23:49:42.467Z,10.25
2023-01-09T23:54:45.478Z,10.45
2023-01-09T23:59:48.362Z,10.55
